sensor_id;sensor_type;location;lat;lon;timestamp;pressure;altitude;pressure_sealevel;temperature;humidity
50696;BME280;36665;51.786;21.594;2023-05-02T00:06:13;94659.64;;;7.37;52.26
50696;BME280;36665;51.786;21.594;2023-05-02T00:14:36;94650.75;;;7.34;52.35
50696;BME280;36665;51.786;21.594;2023-05-02T00:22:59;94641.14;;;7.32;52.29
50696;BME280;36665;51.786;21.594;2023-05-02T00:31:22;94637.77;;;7.31;52.30
50696;BME280;36665;51.786;21.594;2023-05-02T00:39:45;94634.96;;;7.30;52.20
50696;BME280;36665;51.786;21.594;2023-05-02T00:48:09;94628.20;;;7.28;52.28
50696;BME280;36665;51.786;21.594;2023-05-02T00:56:34;94611.81;;;7.25;52.48
50696;BME280;36665;51.786;21.594;2023-05-02T01:05:16;94596.63;;;7.21;52.30
50696;BME280;36665;51.786;21.594;2023-05-02T01:13:44;94577.45;;;7.15;52.31
50696;BME280;36665;51.786;21.594;2023-05-02T01:22:11;94554.29;;;7.09;52.35
50696;BME280;36665;51.786;21.594;2023-05-02T01:30:37;94525.40;;;7.00;52.29
50696;BME280;36665;51.786;21.594;2023-05-02T01:39:04;94482.78;;;6.89;52.35
50696;BME280;36665;51.786;21.594;2023-05-02T01:47:34;94439.08;;;6.78;52.28
50696;BME280;36665;51.786;21.594;2023-05-02T01:56:00;94396.94;;;6.66;52.24
50696;BME280;36665;51.786;21.594;2023-05-02T02:04:26;94375.98;;;6.62;52.17
50696;BME280;36665;51.786;21.594;2023-05-02T02:12:53;94344.98;;;6.53;52.09
50696;BME280;36665;51.786;21.594;2023-05-02T02:21:19;94306.29;;;6.42;52.01
50696;BME280;36665;51.786;21.594;2023-05-02T02:29:46;94286.45;;;6.37;52.18
50696;BME280;36665;51.786;21.594;2023-05-02T02:38:25;94289.49;;;6.38;52.05
50696;BME280;36665;51.786;21.594;2023-05-02T02:47:09;94295.63;;;6.40;52.08
50696;BME280;36665;51.786;21.594;2023-05-02T02:55:52;94304.80;;;6.42;52.08
50696;BME280;36665;51.786;21.594;2023-05-02T03:04:21;94302.80;;;6.42;52.19
50696;BME280;36665;51.786;21.594;2023-05-02T03:12:46;94306.09;;;6.43;52.08
50696;BME280;36665;51.786;21.594;2023-05-02T03:21:10;94313.77;;;6.46;52.24
50696;BME280;36665;51.786;21.594;2023-05-02T03:29:33;94317.13;;;6.48;52.21
50696;BME280;36665;51.786;21.594;2023-05-02T03:37:57;94329.56;;;6.51;52.33
50696;BME280;36665;51.786;21.594;2023-05-02T03:46:21;94354.11;;;6.57;52.35
50696;BME280;36665;51.786;21.594;2023-05-02T03:54:45;94391.64;;;6.67;52.30
50696;BME280;36665;51.786;21.594;2023-05-02T04:03:09;94442.23;;;6.82;52.37
50696;BME280;36665;51.786;21.594;2023-05-02T04:11:35;94526.73;;;7.04;52.43
50696;BME280;36665;51.786;21.594;2023-05-02T04:20:02;94641.27;;;7.36;52.38
50696;BME280;36665;51.786;21.594;2023-05-02T04:28:34;94756.73;;;7.66;52.59
50696;BME280;36665;51.786;21.594;2023-05-02T04:37:01;94936.23;;;8.16;52.74
50696;BME280;36665;51.786;21.594;2023-05-02T04:45:25;95081.97;;;8.54;52.71
50696;BME280;36665;51.786;21.594;2023-05-02T04:53:49;95217.69;;;8.91;52.81
50696;BME280;36665;51.786;21.594;2023-05-02T05:02:13;95455.59;;;9.54;53.12
50696;BME280;36665;51.786;21.594;2023-05-02T05:10:37;95673.15;;;10.11;53.28
50696;BME280;36665;51.786;21.594;2023-05-02T05:19:04;95792.85;;;10.44;53.20
50696;BME280;36665;51.786;21.594;2023-05-02T05:27:27;95884.95;;;10.68;53.44
50696;BME280;36665;51.786;21.594;2023-05-02T05:35:51;96109.89;;;11.27;53.50
50696;BME280;36665;51.786;21.594;2023-05-02T05:44:14;96406.08;;;12.03;53.53
50696;BME280;36665;51.786;21.594;2023-05-02T05:52:39;96622.61;;;12.59;53.81
50696;BME280;36665;51.786;21.594;2023-05-02T06:01:03;96760.98;;;12.96;53.81
50696;BME280;36665;51.786;21.594;2023-05-02T06:09:28;96963.44;;;13.48;53.85
50696;BME280;36665;51.786;21.594;2023-05-02T06:17:52;97352.66;;;14.46;54.05
50696;BME280;36665;51.786;21.594;2023-05-02T06:26:16;97646.92;;;15.21;54.48
50696;BME280;36665;51.786;21.594;2023-05-02T06:34:39;97909.41;;;15.87;54.54
50696;BME280;36665;51.786;21.594;2023-05-02T06:43:02;98196.46;;;16.58;54.60
50696;BME280;36665;51.786;21.594;2023-05-02T06:51:25;98461.48;;;17.24;54.87
50696;BME280;36665;51.786;21.594;2023-05-02T06:59:49;98712.58;;;17.85;54.93
50696;BME280;36665;51.786;21.594;2023-05-02T07:08:12;98900.41;;;18.31;55.15
50696;BME280;36665;51.786;21.594;2023-05-02T07:16:35;99166.20;;;18.95;55.26
50696;BME280;36665;51.786;21.594;2023-05-02T07:25:01;99291.90;;;19.24;55.31
50696;BME280;36665;51.786;21.594;2023-05-02T07:33:24;99399.61;;;19.49;55.48
50696;BME280;36665;51.786;21.594;2023-05-02T07:41:51;99478.70;;;19.68;55.35
50696;BME280;36665;51.786;21.594;2023-05-02T07:50:14;99589.13;;;19.94;55.50
50696;BME280;36665;51.786;21.594;2023-05-02T07:58:37;99701.45;;;20.20;55.47
50696;BME280;36665;51.786;21.594;2023-05-02T08:07:00;99849.35;;;20.55;55.60
50696;BME280;36665;51.786;21.594;2023-05-02T08:15:23;99994.83;;;20.89;55.58
50696;BME280;36665;51.786;21.594;2023-05-02T08:23:46;100187.95;;;21.34;55.71
50696;BME280;36665;51.786;21.594;2023-05-02T08:32:09;100254.83;;;21.50;55.79
50696;BME280;36665;51.786;21.594;2023-05-02T08:40:37;100360.05;;;21.74;55.82
50696;BME280;36665;51.786;21.594;2023-05-02T08:49:05;100389.72;;;21.81;55.81
50696;BME280;36665;51.786;21.594;2023-05-02T08:57:30;100446.19;;;21.94;55.95
50696;BME280;36665;51.786;21.594;2023-05-02T09:06:03;100529.81;;;22.13;55.64
50696;BME280;36665;51.786;21.594;2023-05-02T09:14:27;100610.85;;;22.32;55.86
50696;BME280;36665;51.786;21.594;2023-05-02T09:22:52;100708.04;;;22.54;55.93
50696;BME280;36665;51.786;21.594;2023-05-02T09:31:17;100757.72;;;22.65;55.90
50696;BME280;36665;51.786;21.594;2023-05-02T09:40:06;100835.52;;;22.83;55.87
50696;BME280;36665;51.786;21.594;2023-05-02T09:48:32;100872.75;;;22.92;55.83
50696;BME280;36665;51.786;21.594;2023-05-02T09:56:56;100951.70;;;23.09;56.09
50696;BME280;36665;51.786;21.594;2023-05-02T10:05:19;100923.14;;;23.03;55.92
50696;BME280;36665;51.786;21.594;2023-05-02T10:13:43;100920.08;;;23.01;55.96
50696;BME280;36665;51.786;21.594;2023-05-02T10:22:07;100926.14;;;23.03;55.74
50696;BME280;36665;51.786;21.594;2023-05-02T10:30:32;100819.33;;;22.78;55.92
50696;BME280;36665;51.786;21.594;2023-05-02T10:38:57;100577.89;;;22.22;55.60
50696;BME280;36665;51.786;21.594;2023-05-02T10:47:24;100655.52;;;22.41;55.51
50696;BME280;36665;51.786;21.594;2023-05-02T10:56:24;100798.29;;;22.74;55.61
50696;BME280;36665;51.786;21.594;2023-05-02T11:05:04;100703.39;;;22.52;55.61
50696;BME280;36665;51.786;21.594;2023-05-02T11:13:47;100671.39;;;22.45;55.53
50696;BME280;36665;51.786;21.594;2023-05-02T11:30:42;100630.35;;;22.35;55.29
50696;BME280;36665;51.786;21.594;2023-05-02T11:39:17;100433.36;;;21.89;55.40
50696;BME280;36665;51.786;21.594;2023-05-02T11:47:42;100594.75;;;22.29;55.31
50696;BME280;36665;51.786;21.594;2023-05-02T11:56:05;100661.17;;;22.44;55.32
50696;BME280;36665;51.786;21.594;2023-05-02T12:04:41;100718.79;;;22.57;55.37
50696;BME280;36665;51.786;21.594;2023-05-02T12:13:05;100661.13;;;22.44;55.15
50696;BME280;36665;51.786;21.594;2023-05-02T12:21:31;100375.75;;;21.76;55.04
50696;BME280;36665;51.786;21.594;2023-05-02T12:29:56;100199.02;;;21.34;55.10
50696;BME280;36665;51.786;21.594;2023-05-02T12:38:21;100153.67;;;21.24;55.07
50696;BME280;36665;51.786;21.594;2023-05-02T12:46:58;100048.44;;;20.98;54.89
50696;BME280;36665;51.786;21.594;2023-05-02T12:55:25;99930.36;;;20.71;54.77
50696;BME280;36665;51.786;21.594;2023-05-02T13:03:51;99908.91;;;20.66;54.65
50696;BME280;36665;51.786;21.594;2023-05-02T13:12:14;99965.59;;;20.80;54.60
50696;BME280;36665;51.786;21.594;2023-05-02T13:20:39;99941.15;;;20.75;54.59
50696;BME280;36665;51.786;21.594;2023-05-02T13:29:02;99845.42;;;20.52;54.53
50696;BME280;36665;51.786;21.594;2023-05-02T13:37:25;99760.60;;;20.31;54.50
50696;BME280;36665;51.786;21.594;2023-05-02T13:45:48;99741.71;;;20.26;54.42
50696;BME280;36665;51.786;21.594;2023-05-02T13:54:16;99644.75;;;20.04;54.44
50696;BME280;36665;51.786;21.594;2023-05-02T14:02:39;99413.78;;;19.48;54.27
50696;BME280;36665;51.786;21.594;2023-05-02T14:11:03;99210.82;;;18.98;54.30
50696;BME280;36665;51.786;21.594;2023-05-02T14:19:29;99083.11;;;18.68;53.97
50696;BME280;36665;51.786;21.594;2023-05-02T14:27:52;99043.58;;;18.59;53.98
50696;BME280;36665;51.786;21.594;2023-05-02T14:36:15;99085.44;;;18.69;53.98
50696;BME280;36665;51.786;21.594;2023-05-02T14:44:38;99119.84;;;18.78;54.02
50696;BME280;36665;51.786;21.594;2023-05-02T14:53:01;99106.69;;;18.75;54.08
50696;BME280;36665;51.786;21.594;2023-05-02T15:01:25;99067.14;;;18.66;53.91
50696;BME280;36665;51.786;21.594;2023-05-02T15:09:48;99079.85;;;18.69;53.92
50696;BME280;36665;51.786;21.594;2023-05-02T15:18:12;99063.90;;;18.65;53.88
50696;BME280;36665;51.786;21.594;2023-05-02T15:26:36;98971.77;;;18.42;53.73
50696;BME280;36665;51.786;21.594;2023-05-02T15:35:05;98835.02;;;18.08;53.69
50696;BME280;36665;51.786;21.594;2023-05-02T15:43:30;98691.86;;;17.73;53.65
50696;BME280;36665;51.786;21.594;2023-05-02T15:51:53;98535.64;;;17.35;53.61
50696;BME280;36665;51.786;21.594;2023-05-02T16:00:16;98422.61;;;17.07;53.54
50696;BME280;36665;51.786;21.594;2023-05-02T16:08:39;98345.47;;;16.88;53.34
50696;BME280;36665;51.786;21.594;2023-05-02T16:17:03;98283.41;;;16.73;53.52
50696;BME280;36665;51.786;21.594;2023-05-02T16:25:27;98223.68;;;16.58;53.38
50696;BME280;36665;51.786;21.594;2023-05-02T16:33:50;98178.04;;;16.46;53.44
50696;BME280;36665;51.786;21.594;2023-05-02T16:42:13;98132.70;;;16.35;53.26
50696;BME280;36665;51.786;21.594;2023-05-02T16:50:36;98098.48;;;16.27;53.33
50696;BME280;36665;51.786;21.594;2023-05-02T16:58:59;98058.94;;;16.17;53.24
50696;BME280;36665;51.786;21.594;2023-05-02T17:07:22;98010.23;;;16.05;53.26
50696;BME280;36665;51.786;21.594;2023-05-02T17:15:45;97949.35;;;15.90;53.27
50696;BME280;36665;51.786;21.594;2023-05-02T17:24:09;97890.00;;;15.75;53.04
50696;BME280;36665;51.786;21.594;2023-05-02T17:32:32;97831.73;;;15.61;53.06
50696;BME280;36665;51.786;21.594;2023-05-02T17:40:57;97764.81;;;15.44;53.26
50696;BME280;36665;51.786;21.594;2023-05-02T17:49:20;97692.92;;;15.24;53.07
50696;BME280;36665;51.786;21.594;2023-05-02T17:57:43;97606.91;;;15.03;53.19
50696;BME280;36665;51.786;21.594;2023-05-02T18:06:06;97506.50;;;14.79;53.15
50696;BME280;36665;51.786;21.594;2023-05-02T18:14:30;97399.98;;;14.51;52.91
50696;BME280;36665;51.786;21.594;2023-05-02T18:22:53;97311.22;;;14.29;53.01
50696;BME280;36665;51.786;21.594;2023-05-02T18:31:19;97248.27;;;14.13;52.86
50696;BME280;36665;51.786;21.594;2023-05-02T18:39:42;97177.31;;;13.95;52.79
50696;BME280;36665;51.786;21.594;2023-05-02T18:48:05;97115.23;;;13.79;52.76
50696;BME280;36665;51.786;21.594;2023-05-02T18:56:29;97056.48;;;13.63;52.75
50696;BME280;36665;51.786;21.594;2023-05-02T19:04:52;97012.16;;;13.51;52.72
50696;BME280;36665;51.786;21.594;2023-05-02T19:13:15;96968.67;;;13.41;52.58
50696;BME280;36665;51.786;21.594;2023-05-02T19:21:39;96928.46;;;13.31;52.69
50696;BME280;36665;51.786;21.594;2023-05-02T19:30:05;96892.58;;;13.22;52.67
50696;BME280;36665;51.786;21.594;2023-05-02T19:38:31;96898.63;;;13.23;52.66
50696;BME280;36665;51.786;21.594;2023-05-02T19:46:54;96917.35;;;13.28;52.86
50696;BME280;36665;51.786;21.594;2023-05-02T19:55:17;96910.47;;;13.27;52.86
50696;BME280;36665;51.786;21.594;2023-05-02T20:03:42;96883.17;;;13.20;52.76
50696;BME280;36665;51.786;21.594;2023-05-02T20:12:05;96843.98;;;13.10;52.64
50696;BME280;36665;51.786;21.594;2023-05-02T20:20:29;96803.95;;;12.99;52.78
50696;BME280;36665;51.786;21.594;2023-05-02T20:28:52;96761.16;;;12.88;52.62
50696;BME280;36665;51.786;21.594;2023-05-02T20:37:20;96754.70;;;12.86;52.74
50696;BME280;36665;51.786;21.594;2023-05-02T20:45:44;96763.56;;;12.89;52.68
50696;BME280;36665;51.786;21.594;2023-05-02T20:54:07;96755.75;;;12.86;52.70
50696;BME280;36665;51.786;21.594;2023-05-02T21:02:30;96723.69;;;12.78;52.89
50696;BME280;36665;51.786;21.594;2023-05-02T21:10:53;96719.04;;;12.77;52.88
50696;BME280;36665;51.786;21.594;2023-05-02T21:19:18;96723.84;;;12.78;52.76
50696;BME280;36665;51.786;21.594;2023-05-02T21:27:41;96699.24;;;12.72;52.97
50696;BME280;36665;51.786;21.594;2023-05-02T21:36:04;96627.53;;;12.53;53.02
50696;BME280;36665;51.786;21.594;2023-05-02T21:44:29;96575.89;;;12.40;52.86
50696;BME280;36665;51.786;21.594;2023-05-02T21:52:53;96549.95;;;12.34;52.86
50696;BME280;36665;51.786;21.594;2023-05-02T22:01:16;96525.20;;;12.26;52.96
50696;BME280;36665;51.786;21.594;2023-05-02T22:09:39;96502.66;;;12.19;52.95
50696;BME280;36665;51.786;21.594;2023-05-02T22:18:02;96459.77;;;12.08;53.10
50696;BME280;36665;51.786;21.594;2023-05-02T22:26:29;96397.11;;;11.93;52.92
50696;BME280;36665;51.786;21.594;2023-05-02T22:34:52;96373.77;;;11.87;53.00
50696;BME280;36665;51.786;21.594;2023-05-02T22:43:15;96358.13;;;11.83;53.08
50696;BME280;36665;51.786;21.594;2023-05-02T22:51:40;96329.62;;;11.75;53.16
50696;BME280;36665;51.786;21.594;2023-05-02T23:00:04;96282.38;;;11.62;52.92
50696;BME280;36665;51.786;21.594;2023-05-02T23:08:28;96239.86;;;11.52;52.98
50696;BME280;36665;51.786;21.594;2023-05-02T23:16:51;96219.58;;;11.47;52.95
50696;BME280;36665;51.786;21.594;2023-05-02T23:25:15;96186.10;;;11.38;53.12
50696;BME280;36665;51.786;21.594;2023-05-02T23:33:39;96112.63;;;11.18;52.96
50696;BME280;36665;51.786;21.594;2023-05-02T23:42:03;96079.17;;;11.09;53.08
50696;BME280;36665;51.786;21.594;2023-05-02T23:50:26;96051.58;;;11.03;53.22
50696;BME280;36665;51.786;21.594;2023-05-02T23:58:49;96016.06;;;10.92;53.14
